Vremea acum in Căzănești - Romania

Vrei sa afli care e starea vremii acum in Giurgiu - Romania? Dorim sa iti furnizam starea vremii pentru Giurgiu - Romania. Starea vremii Giurgiu - Romania pentru astazi.

Vremea acum in Căzănești

Temperatura: 8.1 °C

Este: Senin
Se simte ca: 7.8 °C
Innorat: 0 %
Precipitatii: 0 %
Presiune atmosferica: 1015 hPa
Umiditate: 93%
Vizibilitate: 10 km
Vantul bate din SSW cu 4.3 km/h

Evolutia vremii in Căzănești pe ore

Ora: 05:00
Senin
Temperatura: 8.1°C
Sansa de precipitatii: 0%
Ora Descriere Temp Se simte Precipitatii Umiditate Vant
00:00Senin11.4°10.2°0%56%SSE 10.8 KM/H
01:00Senin11°10°0%56%S 9 KM/H
02:00Senin10.5°9.4°0%56%S 8.6 KM/H
03:00Senin10.1°9.3°0%57%S 7.2 KM/H
04:00Senin9.8°9.4°0%57%S 5.4 KM/H
05:00Senin8.1°9.4°0%93%SSW 4.3 KM/H
06:00Senin9.3°9.3°0%58%S 4 KM/H
07:00Senin10.5°10.8°0%59%S 3.6 KM/H
08:00Senin12.8°12.8°0%52%S 1.8 KM/H
09:00Senin15°15.1°0%47%SSE 2.5 KM/H
10:00Senin17°17°0%43%SSE 5.4 KM/H
11:00Senin18.5°18.5°0%41%SSE 5.8 KM/H
12:00Senin19.6°19.6°0%39%SE 7.6 KM/H
13:00Senin20.5°20.5°0%39%SSE 7.9 KM/H
14:00Senin21.3°21.3°0%38%SSE 7.9 KM/H
15:00Senin21.8°21.8°0%37%SSE 8.3 KM/H
16:00Senin22.1°23.9°0%37%SSE 8.3 KM/H
17:00Senin22.1°23.9°0%38%S 8.3 KM/H
18:00Senin21.9°21.9°0%40%S 9 KM/H
19:00Senin20.4°20.4°0%50%S 11.2 KM/H
20:00Senin17.3°17.3°0%60%S 13.3 KM/H
21:00Senin15.5°15.5°0%63%S 14 KM/H
22:00Senin14.1°13.1°0%67%SSE 14.4 KM/H
23:00Senin13°11.6°0%72%SSE 14.8 KM/H




tutorials